sensor_id;sensor_type;location;lat;lon;timestamp;temperature;humidity
63289;DHT22;49412;48.162;-1.978;2022-11-18T00:01:43;8.40;1.00
63289;DHT22;49412;48.162;-1.978;2022-11-18T00:04:09;8.40;1.00
63289;DHT22;49412;48.162;-1.978;2022-11-18T00:06:35;8.40;1.00
63289;DHT22;49412;48.162;-1.978;2022-11-18T00:09:00;8.40;1.00
63289;DHT22;49412;48.162;-1.978;2022-11-18T00:11:26;8.40;1.00
63289;DHT22;49412;48.162;-1.978;2022-11-18T00:14:11;8.40;1.00
63289;DHT22;49412;48.162;-1.978;2022-11-18T00:16:43;8.40;1.00
63289;DHT22;49412;48.162;-1.978;2022-11-18T00:19:09;8.40;1.00
63289;DHT22;49412;48.162;-1.978;2022-11-18T00:21:35;8.40;1.00
63289;DHT22;49412;48.162;-1.978;2022-11-18T00:24:00;8.40;1.00
63289;DHT22;49412;48.162;-1.978;2022-11-18T00:26:26;8.40;1.00
63289;DHT22;49412;48.162;-1.978;2022-11-18T00:28:51;8.40;1.00
63289;DHT22;49412;48.162;-1.978;2022-11-18T00:31:17;8.40;1.00
63289;DHT22;49412;48.162;-1.978;2022-11-18T00:33:42;8.40;1.00
63289;DHT22;49412;48.162;-1.978;2022-11-18T00:36:09;8.30;1.00
63289;DHT22;49412;48.162;-1.978;2022-11-18T00:41:30;8.30;1.00
63289;DHT22;49412;48.162;-1.978;2022-11-18T00:44:15;8.30;1.00
63289;DHT22;49412;48.162;-1.978;2022-11-18T00:46:41;8.30;1.00
63289;DHT22;49412;48.162;-1.978;2022-11-18T00:49:06;8.30;1.00
63289;DHT22;49412;48.162;-1.978;2022-11-18T00:51:32;8.30;1.00
63289;DHT22;49412;48.162;-1.978;2022-11-18T00:53:58;8.30;1.00
63289;DHT22;49412;48.162;-1.978;2022-11-18T00:56:23;8.30;1.00
63289;DHT22;49412;48.162;-1.978;2022-11-18T00:58:49;8.30;1.00
63289;DHT22;49412;48.162;-1.978;2022-11-18T01:01:14;8.40;1.00
63289;DHT22;49412;48.162;-1.978;2022-11-18T01:03:40;8.30;1.00
63289;DHT22;49412;48.162;-1.978;2022-11-18T01:06:05;8.30;1.00
63289;DHT22;49412;48.162;-1.978;2022-11-18T01:08:31;8.20;1.00
63289;DHT22;49412;48.162;-1.978;2022-11-18T01:10:56;8.20;1.00
63289;DHT22;49412;48.162;-1.978;2022-11-18T01:13:42;8.20;1.00
63289;DHT22;49412;48.162;-1.978;2022-11-18T01:16:07;8.20;1.00
63289;DHT22;49412;48.162;-1.978;2022-11-18T01:18:33;8.20;1.00
63289;DHT22;49412;48.162;-1.978;2022-11-18T01:20:59;8.10;1.00
63289;DHT22;49412;48.162;-1.978;2022-11-18T01:23:25;8.10;1.00
63289;DHT22;49412;48.162;-1.978;2022-11-18T01:25:51;8.10;1.00
63289;DHT22;49412;48.162;-1.978;2022-11-18T01:28:16;8.10;1.00
63289;DHT22;49412;48.162;-1.978;2022-11-18T01:30:42;8.10;1.00
63289;DHT22;49412;48.162;-1.978;2022-11-18T01:33:08;8.10;1.00
63289;DHT22;49412;48.162;-1.978;2022-11-18T01:35:34;8.00;1.00
63289;DHT22;49412;48.162;-1.978;2022-11-18T01:38:00;8.10;1.00
63289;DHT22;49412;48.162;-1.978;2022-11-18T01:40:26;8.00;1.00
63289;DHT22;49412;48.162;-1.978;2022-11-18T01:42:53;8.10;1.00
63289;DHT22;49412;48.162;-1.978;2022-11-18T01:47:53;8.10;1.00
63289;DHT22;49412;48.162;-1.978;2022-11-18T01:50:20;8.10;1.00
63289;DHT22;49412;48.162;-1.978;2022-11-18T01:52:46;8.20;7.10
63289;DHT22;49412;48.162;-1.978;2022-11-18T01:55:13;8.20;28.30
63289;DHT22;49412;48.162;-1.978;2022-11-18T01:57:41;8.20;1.00
63289;DHT22;49412;48.162;-1.978;2022-11-18T02:00:08;8.30;10.40
63289;DHT22;49412;48.162;-1.978;2022-11-18T02:02:34;8.30;1.00
63289;DHT22;49412;48.162;-1.978;2022-11-18T02:05:01;8.30;1.00
63289;DHT22;49412;48.162;-1.978;2022-11-18T02:07:27;8.30;1.00
63289;DHT22;49412;48.162;-1.978;2022-11-18T02:09:53;8.40;1.00
63289;DHT22;49412;48.162;-1.978;2022-11-18T02:12:20;8.30;1.00
63289;DHT22;49412;48.162;-1.978;2022-11-18T02:14:46;8.30;1.00
63289;DHT22;49412;48.162;-1.978;2022-11-18T02:20:11;8.30;1.00
63289;DHT22;49412;48.162;-1.978;2022-11-18T02:22:45;8.30;1.00
63289;DHT22;49412;48.162;-1.978;2022-11-18T02:28:03;8.20;22.50
63289;DHT22;49412;48.162;-1.978;2022-11-18T02:30:33;8.20;21.80
63289;DHT22;49412;48.162;-1.978;2022-11-18T02:33:05;8.20;55.40
63289;DHT22;49412;48.162;-1.978;2022-11-18T02:38:14;8.20;39.60
63289;DHT22;49412;48.162;-1.978;2022-11-18T02:40:43;8.30;1.00
63289;DHT22;49412;48.162;-1.978;2022-11-18T02:43:10;8.30;10.30
63289;DHT22;49412;48.162;-1.978;2022-11-18T02:45:38;8.20;17.50
63289;DHT22;49412;48.162;-1.978;2022-11-18T02:48:06;8.10;94.40
63289;DHT22;49412;48.162;-1.978;2022-11-18T02:50:33;8.20;83.70
63289;DHT22;49412;48.162;-1.978;2022-11-18T02:53:00;8.20;71.00
63289;DHT22;49412;48.162;-1.978;2022-11-18T02:55:27;8.20;56.00
63289;DHT22;49412;48.162;-1.978;2022-11-18T02:57:54;8.20;72.20
63289;DHT22;49412;48.162;-1.978;2022-11-18T03:00:20;8.20;87.40
63289;DHT22;49412;48.162;-1.978;2022-11-18T03:02:46;8.20;92.90
63289;DHT22;49412;48.162;-1.978;2022-11-18T03:05:17;8.30;83.40
63289;DHT22;49412;48.162;-1.978;2022-11-18T03:07:45;8.20;89.40
63289;DHT22;49412;48.162;-1.978;2022-11-18T03:10:12;8.20;99.90
63289;DHT22;49412;48.162;-1.978;2022-11-18T03:12:45;8.20;99.90
63289;DHT22;49412;48.162;-1.978;2022-11-18T03:15:47;8.30;63.20
63289;DHT22;49412;48.162;-1.978;2022-11-18T03:20:46;8.30;13.30
63289;DHT22;49412;48.162;-1.978;2022-11-18T03:28:27;8.30;8.20
63289;DHT22;49412;48.162;-1.978;2022-11-18T03:33:43;8.30;12.00
63289;DHT22;49412;48.162;-1.978;2022-11-18T03:36:10;8.30;1.00
63289;DHT22;49412;48.162;-1.978;2022-11-18T03:38:38;8.30;2.10
63289;DHT22;49412;48.162;-1.978;2022-11-18T03:41:05;8.30;1.00
63289;DHT22;49412;48.162;-1.978;2022-11-18T03:44:03;8.30;1.00
63289;DHT22;49412;48.162;-1.978;2022-11-18T03:46:58;8.30;1.00
63289;DHT22;49412;48.162;-1.978;2022-11-18T03:49:32;8.30;1.00
63289;DHT22;49412;48.162;-1.978;2022-11-18T03:52:04;8.30;1.00
63289;DHT22;49412;48.162;-1.978;2022-11-18T03:54:31;8.30;1.00
63289;DHT22;49412;48.162;-1.978;2022-11-18T03:57:12;8.30;1.00
63289;DHT22;49412;48.162;-1.978;2022-11-18T03:59:52;8.30;58.50
63289;DHT22;49412;48.162;-1.978;2022-11-18T04:02:19;8.20;69.20
63289;DHT22;49412;48.162;-1.978;2022-11-18T04:04:47;8.30;10.00
63289;DHT22;49412;48.162;-1.978;2022-11-18T04:09:44;8.20;68.90
63289;DHT22;49412;48.162;-1.978;2022-11-18T04:12:13;8.20;9.70
63289;DHT22;49412;48.162;-1.978;2022-11-18T04:14:41;8.20;93.10
63289;DHT22;49412;48.162;-1.978;2022-11-18T04:17:14;8.10;99.90
63289;DHT22;49412;48.162;-1.978;2022-11-18T04:19:40;8.20;67.10
63289;DHT22;49412;48.162;-1.978;2022-11-18T04:22:06;8.10;77.60
63289;DHT22;49412;48.162;-1.978;2022-11-18T04:24:31;8.10;50.00
63289;DHT22;49412;48.162;-1.978;2022-11-18T04:26:57;8.10;60.80
63289;DHT22;49412;48.162;-1.978;2022-11-18T04:29:23;8.00;84.00
63289;DHT22;49412;48.162;-1.978;2022-11-18T04:31:48;8.10;99.90
63289;DHT22;49412;48.162;-1.978;2022-11-18T04:34:14;8.10;99.90
63289;DHT22;49412;48.162;-1.978;2022-11-18T04:36:40;8.10;99.90
63289;DHT22;49412;48.162;-1.978;2022-11-18T04:39:05;8.10;99.90
63289;DHT22;49412;48.162;-1.978;2022-11-18T04:41:31;8.10;99.90
63289;DHT22;49412;48.162;-1.978;2022-11-18T04:44:15;8.00;99.90
63289;DHT22;49412;48.162;-1.978;2022-11-18T04:46:41;8.10;99.90
63289;DHT22;49412;48.162;-1.978;2022-11-18T04:49:07;8.10;99.90
63289;DHT22;49412;48.162;-1.978;2022-11-18T04:51:33;8.10;99.90
63289;DHT22;49412;48.162;-1.978;2022-11-18T04:53:58;8.00;99.90
63289;DHT22;49412;48.162;-1.978;2022-11-18T04:56:24;8.00;99.90
63289;DHT22;49412;48.162;-1.978;2022-11-18T04:58:50;8.00;99.90
63289;DHT22;49412;48.162;-1.978;2022-11-18T05:01:15;7.90;99.90
63289;DHT22;49412;48.162;-1.978;2022-11-18T05:03:41;7.90;99.90
63289;DHT22;49412;48.162;-1.978;2022-11-18T05:06:06;8.00;99.90
63289;DHT22;49412;48.162;-1.978;2022-11-18T05:08:32;8.00;99.90
63289;DHT22;49412;48.162;-1.978;2022-11-18T05:10:57;7.90;99.90
63289;DHT22;49412;48.162;-1.978;2022-11-18T05:13:43;7.90;99.90
63289;DHT22;49412;48.162;-1.978;2022-11-18T05:16:09;7.90;99.90
63289;DHT22;49412;48.162;-1.978;2022-11-18T05:18:34;7.90;99.90
63289;DHT22;49412;48.162;-1.978;2022-11-18T05:21:03;7.90;99.90
63289;DHT22;49412;48.162;-1.978;2022-11-18T05:23:29;7.90;99.90
63289;DHT22;49412;48.162;-1.978;2022-11-18T05:25:54;7.90;99.90
63289;DHT22;49412;48.162;-1.978;2022-11-18T05:28:20;7.80;99.90
63289;DHT22;49412;48.162;-1.978;2022-11-18T05:30:45;7.80;99.90
63289;DHT22;49412;48.162;-1.978;2022-11-18T05:33:11;7.80;99.90
63289;DHT22;49412;48.162;-1.978;2022-11-18T05:35:37;7.80;99.90
63289;DHT22;49412;48.162;-1.978;2022-11-18T05:38:02;7.70;99.90
63289;DHT22;49412;48.162;-1.978;2022-11-18T05:40:28;7.70;99.90
63289;DHT22;49412;48.162;-1.978;2022-11-18T05:42:53;7.70;99.90
63289;DHT22;49412;48.162;-1.978;2022-11-18T05:45:37;7.70;99.90
63289;DHT22;49412;48.162;-1.978;2022-11-18T05:48:03;7.70;99.90
63289;DHT22;49412;48.162;-1.978;2022-11-18T05:50:29;7.70;99.90
63289;DHT22;49412;48.162;-1.978;2022-11-18T05:52:55;7.70;99.90
63289;DHT22;49412;48.162;-1.978;2022-11-18T05:55:21;7.70;99.90
63289;DHT22;49412;48.162;-1.978;2022-11-18T05:57:48;7.70;99.90
63289;DHT22;49412;48.162;-1.978;2022-11-18T06:00:13;7.70;99.90
63289;DHT22;49412;48.162;-1.978;2022-11-18T06:02:39;7.80;99.90
63289;DHT22;49412;48.162;-1.978;2022-11-18T06:05:06;7.80;99.90
63289;DHT22;49412;48.162;-1.978;2022-11-18T06:07:33;7.80;99.90
63289;DHT22;49412;48.162;-1.978;2022-11-18T06:10:00;7.80;99.90
63289;DHT22;49412;48.162;-1.978;2022-11-18T06:12:27;7.80;99.90
63289;DHT22;49412;48.162;-1.978;2022-11-18T06:14:58;7.80;99.90
63289;DHT22;49412;48.162;-1.978;2022-11-18T06:17:26;7.80;99.90
63289;DHT22;49412;48.162;-1.978;2022-11-18T06:19:55;7.70;99.90
63289;DHT22;49412;48.162;-1.978;2022-11-18T06:22:21;7.70;99.90
63289;DHT22;49412;48.162;-1.978;2022-11-18T06:24:46;7.70;99.90
63289;DHT22;49412;48.162;-1.978;2022-11-18T06:27:12;7.70;99.90
63289;DHT22;49412;48.162;-1.978;2022-11-18T06:29:38;7.70;99.90
63289;DHT22;49412;48.162;-1.978;2022-11-18T06:32:04;7.80;99.90
63289;DHT22;49412;48.162;-1.978;2022-11-18T06:34:29;7.80;99.90
63289;DHT22;49412;48.162;-1.978;2022-11-18T06:36:55;7.80;99.90
63289;DHT22;49412;48.162;-1.978;2022-11-18T06:39:21;7.80;99.90
63289;DHT22;49412;48.162;-1.978;2022-11-18T06:41:46;7.80;99.90
63289;DHT22;49412;48.162;-1.978;2022-11-18T06:44:12;7.80;99.90
63289;DHT22;49412;48.162;-1.978;2022-11-18T06:46:37;7.80;99.90
63289;DHT22;49412;48.162;-1.978;2022-11-18T06:49:22;7.80;99.90
63289;DHT22;49412;48.162;-1.978;2022-11-18T06:51:48;7.70;99.90
63289;DHT22;49412;48.162;-1.978;2022-11-18T06:54:13;7.80;99.90
63289;DHT22;49412;48.162;-1.978;2022-11-18T06:56:39;7.70;99.90
63289;DHT22;49412;48.162;-1.978;2022-11-18T06:59:04;7.70;99.90
63289;DHT22;49412;48.162;-1.978;2022-11-18T07:01:32;7.70;99.90
63289;DHT22;49412;48.162;-1.978;2022-11-18T07:03:58;7.60;99.90
63289;DHT22;49412;48.162;-1.978;2022-11-18T07:06:25;7.60;99.90
63289;DHT22;49412;48.162;-1.978;2022-11-18T07:08:51;7.50;99.90
63289;DHT22;49412;48.162;-1.978;2022-11-18T07:11:18;7.40;99.90
63289;DHT22;49412;48.162;-1.978;2022-11-18T07:13:44;7.50;99.90
63289;DHT22;49412;48.162;-1.978;2022-11-18T07:16:13;7.40;99.90
63289;DHT22;49412;48.162;-1.978;2022-11-18T07:18:39;7.50;99.90
63289;DHT22;49412;48.162;-1.978;2022-11-18T07:21:10;7.50;99.90
63289;DHT22;49412;48.162;-1.978;2022-11-18T07:23:35;7.60;99.90
63289;DHT22;49412;48.162;-1.978;2022-11-18T07:26:01;7.60;99.90
63289;DHT22;49412;48.162;-1.978;2022-11-18T07:28:27;7.70;99.90
63289;DHT22;49412;48.162;-1.978;2022-11-18T07:31:02;7.60;99.90
63289;DHT22;49412;48.162;-1.978;2022-11-18T07:33:28;7.60;99.90
63289;DHT22;49412;48.162;-1.978;2022-11-18T07:35:53;7.70;99.90
63289;DHT22;49412;48.162;-1.978;2022-11-18T07:38:22;7.70;92.20
63289;DHT22;49412;48.162;-1.978;2022-11-18T07:40:48;7.70;16.40
63289;DHT22;49412;48.162;-1.978;2022-11-18T07:43:13;7.70;21.50
63289;DHT22;49412;48.162;-1.978;2022-11-18T07:45:39;7.70;53.10
63289;DHT22;49412;48.162;-1.978;2022-11-18T07:48:05;7.80;1.00
63289;DHT22;49412;48.162;-1.978;2022-11-18T07:50:30;7.80;1.00
63289;DHT22;49412;48.162;-1.978;2022-11-18T07:52:56;7.80;1.00
63289;DHT22;49412;48.162;-1.978;2022-11-18T07:55:22;7.90;1.00
63289;DHT22;49412;48.162;-1.978;2022-11-18T07:57:47;8.00;1.00
63289;DHT22;49412;48.162;-1.978;2022-11-18T08:00:13;8.10;1.00
63289;DHT22;49412;48.162;-1.978;2022-11-18T08:02:39;8.20;1.00
63289;DHT22;49412;48.162;-1.978;2022-11-18T08:05:04;8.30;1.00
63289;DHT22;49412;48.162;-1.978;2022-11-18T08:07:30;8.50;1.00
63289;DHT22;49412;48.162;-1.978;2022-11-18T08:09:56;8.60;1.00
63289;DHT22;49412;48.162;-1.978;2022-11-18T08:12:21;8.80;99.90
63289;DHT22;49412;48.162;-1.978;2022-11-18T08:14:47;8.90;99.90
63289;DHT22;49412;48.162;-1.978;2022-11-18T08:17:12;9.40;99.90
63289;DHT22;49412;48.162;-1.978;2022-11-18T08:19:38;9.90;99.90
63289;DHT22;49412;48.162;-1.978;2022-11-18T08:22:03;10.50;99.90
63289;DHT22;49412;48.162;-1.978;2022-11-18T08:24:29;11.10;99.90
63289;DHT22;49412;48.162;-1.978;2022-11-18T08:26:54;11.30;99.90
63289;DHT22;49412;48.162;-1.978;2022-11-18T08:29:20;11.60;99.90
63289;DHT22;49412;48.162;-1.978;2022-11-18T08:31:46;11.90;99.90
63289;DHT22;49412;48.162;-1.978;2022-11-18T08:34:11;12.20;99.90
63289;DHT22;49412;48.162;-1.978;2022-11-18T08:36:37;12.40;99.90
63289;DHT22;49412;48.162;-1.978;2022-11-18T08:39:03;12.40;99.90
63289;DHT22;49412;48.162;-1.978;2022-11-18T08:41:34;12.80;93.90
63289;DHT22;49412;48.162;-1.978;2022-11-18T08:44:00;13.00;91.80
63289;DHT22;49412;48.162;-1.978;2022-11-18T08:46:26;13.40;79.70
63289;DHT22;49412;48.162;-1.978;2022-11-18T08:48:51;13.70;61.20
63289;DHT22;49412;48.162;-1.978;2022-11-18T08:51:17;14.20;56.00
63289;DHT22;49412;48.162;-1.978;2022-11-18T08:53:43;13.90;43.50
63289;DHT22;49412;48.162;-1.978;2022-11-18T08:56:13;14.30;39.50
63289;DHT22;49412;48.162;-1.978;2022-11-18T08:58:39;14.60;33.90
63289;DHT22;49412;48.162;-1.978;2022-11-18T09:01:06;15.20;28.10
63289;DHT22;49412;48.162;-1.978;2022-11-18T09:03:31;15.30;23.00
63289;DHT22;49412;48.162;-1.978;2022-11-18T09:06:10;15.70;21.10
63289;DHT22;49412;48.162;-1.978;2022-11-18T09:08:36;16.00;16.20
63289;DHT22;49412;48.162;-1.978;2022-11-18T09:11:09;16.90;9.30
63289;DHT22;49412;48.162;-1.978;2022-11-18T09:13:35;16.60;7.40
63289;DHT22;49412;48.162;-1.978;2022-11-18T09:16:01;16.80;4.90
63289;DHT22;49412;48.162;-1.978;2022-11-18T09:18:27;17.30;3.40
63289;DHT22;49412;48.162;-1.978;2022-11-18T09:20:57;17.20;2.90
63289;DHT22;49412;48.162;-1.978;2022-11-18T09:23:23;18.10;1.20
63289;DHT22;49412;48.162;-1.978;2022-11-18T09:25:55;18.20;1.00
63289;DHT22;49412;48.162;-1.978;2022-11-18T09:28:21;18.90;1.00
63289;DHT22;49412;48.162;-1.978;2022-11-18T09:30:46;19.30;1.00
63289;DHT22;49412;48.162;-1.978;2022-11-18T09:33:12;19.70;1.00
63289;DHT22;49412;48.162;-1.978;2022-11-18T09:35:40;19.70;1.00
63289;DHT22;49412;48.162;-1.978;2022-11-18T09:38:06;20.90;1.00
63289;DHT22;49412;48.162;-1.978;2022-11-18T09:40:32;20.50;1.00
63289;DHT22;49412;48.162;-1.978;2022-11-18T09:43:03;19.60;1.00
63289;DHT22;49412;48.162;-1.978;2022-11-18T09:45:33;20.20;1.00
63289;DHT22;49412;48.162;-1.978;2022-11-18T09:47:59;20.00;1.00
63289;DHT22;49412;48.162;-1.978;2022-11-18T09:50:30;20.40;1.00
63289;DHT22;49412;48.162;-1.978;2022-11-18T09:55:24;20.80;1.00
63289;DHT22;49412;48.162;-1.978;2022-11-18T09:57:50;21.10;1.00
63289;DHT22;49412;48.162;-1.978;2022-11-18T10:00:18;21.50;1.00
63289;DHT22;49412;48.162;-1.978;2022-11-18T10:05:14;21.90;1.00
63289;DHT22;49412;48.162;-1.978;2022-11-18T10:07:43;22.90;1.00
63289;DHT22;49412;48.162;-1.978;2022-11-18T10:10:12;22.40;1.00
63289;DHT22;49412;48.162;-1.978;2022-11-18T10:12:46;23.50;1.00
63289;DHT22;49412;48.162;-1.978;2022-11-18T10:22:43;22.80;1.00
63289;DHT22;49412;48.162;-1.978;2022-11-18T10:25:15;22.40;1.00
63289;DHT22;49412;48.162;-1.978;2022-11-18T10:35:45;22.60;1.00
63289;DHT22;49412;48.162;-1.978;2022-11-18T10:40:43;24.20;1.00
63289;DHT22;49412;48.162;-1.978;2022-11-18T10:43:10;24.10;1.00
63289;DHT22;49412;48.162;-1.978;2022-11-18T10:45:35;23.30;1.00
63289;DHT22;49412;48.162;-1.978;2022-11-18T10:50:40;24.60;1.00
63289;DHT22;49412;48.162;-1.978;2022-11-18T10:53:24;25.50;1.00
63289;DHT22;49412;48.162;-1.978;2022-11-18T10:55:58;26.10;1.00
63289;DHT22;49412;48.162;-1.978;2022-11-18T10:58:24;26.80;1.00
63289;DHT22;49412;48.162;-1.978;2022-11-18T11:00:50;27.10;1.00
63289;DHT22;49412;48.162;-1.978;2022-11-18T11:03:26;25.90;1.00
63289;DHT22;49412;48.162;-1.978;2022-11-18T11:08:45;25.10;1.00
63289;DHT22;49412;48.162;-1.978;2022-11-18T11:11:15;24.20;1.00
63289;DHT22;49412;48.162;-1.978;2022-11-18T11:13:42;24.30;1.00
63289;DHT22;49412;48.162;-1.978;2022-11-18T11:16:09;24.50;1.00
63289;DHT22;49412;48.162;-1.978;2022-11-18T11:18:35;23.20;1.00
63289;DHT22;49412;48.162;-1.978;2022-11-18T11:21:17;23.90;1.00
63289;DHT22;49412;48.162;-1.978;2022-11-18T11:23:44;25.20;1.00
63289;DHT22;49412;48.162;-1.978;2022-11-18T11:28:42;24.60;1.00
63289;DHT22;49412;48.162;-1.978;2022-11-18T11:36:43;26.30;1.00
63289;DHT22;49412;48.162;-1.978;2022-11-18T11:39:33;26.10;1.00
63289;DHT22;49412;48.162;-1.978;2022-11-18T11:44:36;28.00;1.00
63289;DHT22;49412;48.162;-1.978;2022-11-18T11:47:22;26.70;1.00
63289;DHT22;49412;48.162;-1.978;2022-11-18T11:50:21;27.30;1.00
63289;DHT22;49412;48.162;-1.978;2022-11-18T12:00:25;24.90;1.00
63289;DHT22;49412;48.162;-1.978;2022-11-18T12:03:04;25.60;1.00
63289;DHT22;49412;48.162;-1.978;2022-11-18T12:05:37;25.90;1.00
63289;DHT22;49412;48.162;-1.978;2022-11-18T12:08:19;27.00;1.00
63289;DHT22;49412;48.162;-1.978;2022-11-18T12:20:58;25.10;1.00
63289;DHT22;49412;48.162;-1.978;2022-11-18T12:23:27;27.50;1.00
63289;DHT22;49412;48.162;-1.978;2022-11-18T12:25:54;27.00;1.00
63289;DHT22;49412;48.162;-1.978;2022-11-18T12:33:43;28.70;1.00
63289;DHT22;49412;48.162;-1.978;2022-11-18T12:36:09;29.80;1.00
63289;DHT22;49412;48.162;-1.978;2022-11-18T12:38:48;27.30;1.00
63289;DHT22;49412;48.162;-1.978;2022-11-18T12:41:50;27.60;1.00
63289;DHT22;49412;48.162;-1.978;2022-11-18T12:44:22;28.20;1.00
63289;DHT22;49412;48.162;-1.978;2022-11-18T12:46:48;29.50;1.00
63289;DHT22;49412;48.162;-1.978;2022-11-18T12:51:46;27.90;1.00
63289;DHT22;49412;48.162;-1.978;2022-11-18T12:56:58;28.00;1.00
63289;DHT22;49412;48.162;-1.978;2022-11-18T12:59:31;25.60;1.00
63289;DHT22;49412;48.162;-1.978;2022-11-18T13:02:04;26.70;1.00
63289;DHT22;49412;48.162;-1.978;2022-11-18T13:04:30;28.30;1.00
63289;DHT22;49412;48.162;-1.978;2022-11-18T13:06:55;26.90;1.00
63289;DHT22;49412;48.162;-1.978;2022-11-18T13:09:25;26.70;1.00
63289;DHT22;49412;48.162;-1.978;2022-11-18T13:14:19;26.70;1.00
63289;DHT22;49412;48.162;-1.978;2022-11-18T13:20:19;24.10;1.00
63289;DHT22;49412;48.162;-1.978;2022-11-18T13:22:49;22.40;1.00
63289;DHT22;49412;48.162;-1.978;2022-11-18T13:25:33;20.60;1.00
63289;DHT22;49412;48.162;-1.978;2022-11-18T13:28:02;19.30;1.00
63289;DHT22;49412;48.162;-1.978;2022-11-18T13:30:31;18.50;1.00
63289;DHT22;49412;48.162;-1.978;2022-11-18T13:32:58;17.70;1.00
63289;DHT22;49412;48.162;-1.978;2022-11-18T13:35:23;16.80;1.00
63289;DHT22;49412;48.162;-1.978;2022-11-18T13:37:52;16.10;1.00
63289;DHT22;49412;48.162;-1.978;2022-11-18T13:40:29;15.40;8.90
63289;DHT22;49412;48.162;-1.978;2022-11-18T13:42:54;15.00;19.50
63289;DHT22;49412;48.162;-1.978;2022-11-18T13:45:22;14.50;23.20
63289;DHT22;49412;48.162;-1.978;2022-11-18T13:47:54;14.20;30.10
63289;DHT22;49412;48.162;-1.978;2022-11-18T13:53:13;15.00;23.10
63289;DHT22;49412;48.162;-1.978;2022-11-18T13:55:40;15.50;15.80
63289;DHT22;49412;48.162;-1.978;2022-11-18T14:00:43;20.60;1.00
63289;DHT22;49412;48.162;-1.978;2022-11-18T14:06:04;18.40;1.00
63289;DHT22;49412;48.162;-1.978;2022-11-18T14:10:55;16.90;1.00
63289;DHT22;49412;48.162;-1.978;2022-11-18T14:13:25;16.90;1.00
63289;DHT22;49412;48.162;-1.978;2022-11-18T14:15:52;19.60;1.00
63289;DHT22;49412;48.162;-1.978;2022-11-18T14:18:19;23.70;1.00
63289;DHT22;49412;48.162;-1.978;2022-11-18T14:20:51;25.40;1.00
63289;DHT22;49412;48.162;-1.978;2022-11-18T14:23:17;25.80;1.00
63289;DHT22;49412;48.162;-1.978;2022-11-18T14:25:44;23.40;1.00
63289;DHT22;49412;48.162;-1.978;2022-11-18T14:28:20;21.60;1.00
63289;DHT22;49412;48.162;-1.978;2022-11-18T14:31:00;21.80;1.00
63289;DHT22;49412;48.162;-1.978;2022-11-18T14:33:28;20.60;1.00
63289;DHT22;49412;48.162;-1.978;2022-11-18T14:36:08;19.70;1.00
63289;DHT22;49412;48.162;-1.978;2022-11-18T14:41:03;16.80;1.00
63289;DHT22;49412;48.162;-1.978;2022-11-18T14:43:29;16.00;1.00
63289;DHT22;49412;48.162;-1.978;2022-11-18T14:46:00;15.70;1.00
63289;DHT22;49412;48.162;-1.978;2022-11-18T14:48:26;15.80;1.00
63289;DHT22;49412;48.162;-1.978;2022-11-18T14:50:52;15.70;1.00
63289;DHT22;49412;48.162;-1.978;2022-11-18T14:53:18;16.10;1.00
63289;DHT22;49412;48.162;-1.978;2022-11-18T14:55:44;16.50;1.00
63289;DHT22;49412;48.162;-1.978;2022-11-18T14:58:12;17.00;1.00
63289;DHT22;49412;48.162;-1.978;2022-11-18T15:00:39;16.90;1.00
63289;DHT22;49412;48.162;-1.978;2022-11-18T15:03:04;16.70;1.00
63289;DHT22;49412;48.162;-1.978;2022-11-18T15:05:30;17.00;1.00
63289;DHT22;49412;48.162;-1.978;2022-11-18T15:07:56;17.60;1.00
63289;DHT22;49412;48.162;-1.978;2022-11-18T15:10:21;17.60;1.00
63289;DHT22;49412;48.162;-1.978;2022-11-18T15:12:47;17.40;1.00
63289;DHT22;49412;48.162;-1.978;2022-11-18T15:15:12;16.70;1.00
63289;DHT22;49412;48.162;-1.978;2022-11-18T15:17:38;16.60;1.00
63289;DHT22;49412;48.162;-1.978;2022-11-18T15:20:04;16.10;1.00
63289;DHT22;49412;48.162;-1.978;2022-11-18T15:22:31;15.80;1.00
63289;DHT22;49412;48.162;-1.978;2022-11-18T15:24:57;15.40;1.00
63289;DHT22;49412;48.162;-1.978;2022-11-18T15:27:22;15.20;1.00
63289;DHT22;49412;48.162;-1.978;2022-11-18T15:29:48;15.20;1.00
63289;DHT22;49412;48.162;-1.978;2022-11-18T15:32:14;15.00;1.10
63289;DHT22;49412;48.162;-1.978;2022-11-18T15:34:40;14.80;1.50
63289;DHT22;49412;48.162;-1.978;2022-11-18T15:37:06;14.60;4.30
63289;DHT22;49412;48.162;-1.978;2022-11-18T15:39:31;14.70;6.50
63289;DHT22;49412;48.162;-1.978;2022-11-18T15:41:57;14.80;5.10
63289;DHT22;49412;48.162;-1.978;2022-11-18T15:44:22;14.80;5.50
63289;DHT22;49412;48.162;-1.978;2022-11-18T15:46:49;14.60;11.30
63289;DHT22;49412;48.162;-1.978;2022-11-18T15:49:14;14.60;12.90
63289;DHT22;49412;48.162;-1.978;2022-11-18T15:51:41;14.50;15.60
63289;DHT22;49412;48.162;-1.978;2022-11-18T15:54:07;14.50;14.20
63289;DHT22;49412;48.162;-1.978;2022-11-18T15:56:33;14.30;13.30
63289;DHT22;49412;48.162;-1.978;2022-11-18T15:58:59;14.10;21.50
63289;DHT22;49412;48.162;-1.978;2022-11-18T16:01:29;14.90;15.70
63289;DHT22;49412;48.162;-1.978;2022-11-18T16:03:55;14.70;12.00
63289;DHT22;49412;48.162;-1.978;2022-11-18T16:06:21;14.20;14.10
63289;DHT22;49412;48.162;-1.978;2022-11-18T16:08:47;14.00;17.50
63289;DHT22;49412;48.162;-1.978;2022-11-18T16:11:13;13.80;19.80
63289;DHT22;49412;48.162;-1.978;2022-11-18T16:14:01;13.50;27.80
63289;DHT22;49412;48.162;-1.978;2022-11-18T16:16:27;13.70;25.10
63289;DHT22;49412;48.162;-1.978;2022-11-18T16:18:57;13.60;31.20
63289;DHT22;49412;48.162;-1.978;2022-11-18T16:21:23;13.10;39.70
63289;DHT22;49412;48.162;-1.978;2022-11-18T16:23:49;12.70;55.90
63289;DHT22;49412;48.162;-1.978;2022-11-18T16:26:15;12.60;60.00
63289;DHT22;49412;48.162;-1.978;2022-11-18T16:28:40;12.50;50.50
63289;DHT22;49412;48.162;-1.978;2022-11-18T16:31:07;12.20;59.60
63289;DHT22;49412;48.162;-1.978;2022-11-18T16:33:52;12.00;83.80
63289;DHT22;49412;48.162;-1.978;2022-11-18T16:36:23;11.70;98.10
63289;DHT22;49412;48.162;-1.978;2022-11-18T16:38:49;11.80;99.60
63289;DHT22;49412;48.162;-1.978;2022-11-18T16:41:14;11.70;96.70
63289;DHT22;49412;48.162;-1.978;2022-11-18T16:43:55;11.80;94.60
63289;DHT22;49412;48.162;-1.978;2022-11-18T16:46:23;11.50;97.80
63289;DHT22;49412;48.162;-1.978;2022-11-18T16:48:48;11.60;99.90
63289;DHT22;49412;48.162;-1.978;2022-11-18T16:51:18;11.50;96.80
63289;DHT22;49412;48.162;-1.978;2022-11-18T16:53:57;11.30;99.90
63289;DHT22;49412;48.162;-1.978;2022-11-18T16:56:24;11.10;99.90
63289;DHT22;49412;48.162;-1.978;2022-11-18T17:01:55;11.10;99.90
63289;DHT22;49412;48.162;-1.978;2022-11-18T17:04:21;11.10;99.90
63289;DHT22;49412;48.162;-1.978;2022-11-18T17:06:49;11.00;99.90
63289;DHT22;49412;48.162;-1.978;2022-11-18T17:09:18;10.80;99.90
63289;DHT22;49412;48.162;-1.978;2022-11-18T17:11:44;10.70;99.90
63289;DHT22;49412;48.162;-1.978;2022-11-18T17:14:10;10.90;99.90
63289;DHT22;49412;48.162;-1.978;2022-11-18T17:16:35;10.90;99.90
63289;DHT22;49412;48.162;-1.978;2022-11-18T17:19:01;10.70;99.90
63289;DHT22;49412;48.162;-1.978;2022-11-18T17:21:28;10.70;99.90
63289;DHT22;49412;48.162;-1.978;2022-11-18T17:23:53;10.70;99.90
63289;DHT22;49412;48.162;-1.978;2022-11-18T17:26:21;10.40;99.90
63289;DHT22;49412;48.162;-1.978;2022-11-18T17:28:47;10.30;99.90
63289;DHT22;49412;48.162;-1.978;2022-11-18T17:31:14;10.40;99.90
63289;DHT22;49412;48.162;-1.978;2022-11-18T17:33:42;10.30;99.90